createdAt,value
2023-01-20T00:05:58.341Z,101101.84
2023-01-20T00:17:05.303Z,101082.72
2023-01-20T00:28:57.746Z,101096.28
2023-01-20T00:34:31.384Z,101104.44
2023-01-20T00:45:16.729Z,101142.03
2023-01-20T00:50:19.960Z,101147.31
2023-01-20T01:01:39.720Z,101146.69
2023-01-20T01:06:54.618Z,101141.63
2023-01-20T01:12:37.802Z,101095.94
2023-01-20T01:17:44.055Z,101147.56
2023-01-20T01:22:47.291Z,101151.94
2023-01-20T01:29:02.536Z,101169.28
2023-01-20T01:40:49.930Z,101167.97
2023-01-20T01:46:02.463Z,101174.94
2023-01-20T01:51:37.829Z,101144.72
2023-01-20T01:57:08.356Z,101179.75
2023-01-20T02:02:17.722Z,101183.28
2023-01-20T02:08:24.736Z,101175.53
2023-01-20T02:13:29.264Z,101153.31
2023-01-20T02:39:01.758Z,101132.38
2023-01-20T02:51:16.902Z,101196.69
2023-01-20T02:56:25.712Z,101196.44
2023-01-20T03:01:53.039Z,101187.25
2023-01-20T03:06:58.091Z,101191.66
2023-01-20T03:12:50.664Z,101148.38
2023-01-20T03:17:53.800Z,101183.38
2023-01-20T03:23:36.443Z,101184.56
2023-01-20T03:28:42.623Z,101191.53
2023-01-20T03:53:49.799Z,101188.84
2023-01-20T03:58:57.226Z,101193.09
2023-01-20T04:04:17.713Z,101180.44
2023-01-20T04:09:24.510Z,101193.84
2023-01-20T04:14:28.421Z,101207.81
2023-01-20T04:19:33.051Z,101201.50
2023-01-20T04:25:05.549Z,101212.84
2023-01-20T04:30:53.924Z,101168.16
2023-01-20T04:49:16.656Z,101213.00
2023-01-20T05:01:20.682Z,101209.91
2023-01-20T05:06:25.348Z,101223.72
2023-01-20T05:11:53.585Z,101226.94
2023-01-20T05:16:56.858Z,101227.34
2023-01-20T05:28:33.138Z,101238.19
2023-01-20T05:33:48.556Z,101219.84
2023-01-20T05:45:44.110Z,101200.34
2023-01-20T05:50:47.135Z,101230.28
2023-01-20T05:55:50.504Z,101252.94
2023-01-20T06:00:55.275Z,101254.84
2023-01-20T06:06:01.803Z,101235.47
2023-01-20T06:11:55.085Z,101246.84
2023-01-20T06:16:59.427Z,101246.59
2023-01-20T06:22:26.999Z,101243.75
2023-01-20T06:27:30.199Z,101248.78
2023-01-20T06:32:49.314Z,101238.44
2023-01-20T06:37:52.749Z,101235.22
2023-01-20T06:49:25.457Z,101247.63
2023-01-20T07:00:41.284Z,101243.91
2023-01-20T07:05:47.328Z,101261.59
2023-01-20T07:10:50.523Z,101249.06
2023-01-20T07:15:54.314Z,101259.00
2023-01-20T07:20:58.916Z,101254.59
2023-01-20T07:26:07.987Z,101257.31
2023-01-20T07:31:13.718Z,101264.56
2023-01-20T07:36:18.537Z,101268.16
2023-01-20T07:41:22.590Z,101284.47
2023-01-20T07:46:25.831Z,101283.03
2023-01-20T07:51:30.495Z,101286.16
2023-01-20T07:56:33.697Z,101297.91
2023-01-20T08:01:37.179Z,101295.31
2023-01-20T08:06:41.750Z,101305.00
2023-01-20T08:11:44.855Z,101301.41
2023-01-20T08:16:50.563Z,101309.91
2023-01-20T08:21:55.197Z,101317.41
2023-01-20T08:26:59.220Z,101323.63
2023-01-20T08:32:02.404Z,101324.50
2023-01-20T08:37:07.792Z,101336.03
2023-01-20T08:42:10.925Z,101336.16
2023-01-20T08:47:14.037Z,101315.59
2023-01-20T08:52:18.658Z,101343.94
2023-01-20T08:57:21.757Z,101344.16
2023-01-20T09:02:24.883Z,101346.75
2023-01-20T09:07:29.624Z,101345.72
2023-01-20T09:12:33.075Z,101361.88
2023-01-20T09:17:36.448Z,101369.50
2023-01-20T09:22:41.526Z,101372.34
2023-01-20T09:27:44.633Z,101354.88
2023-01-20T09:32:50.125Z,101358.53
2023-01-20T09:38:11.927Z,101360.03
2023-01-20T09:43:47.855Z,101368.06
2023-01-20T09:49:16.595Z,101375.81
2023-01-20T09:54:25.368Z,101386.16
2023-01-20T09:59:33.657Z,101399.88
2023-01-20T10:04:42.638Z,101385.88
2023-01-20T10:09:55.963Z,101386.94
2023-01-20T10:15:02.764Z,101392.38
2023-01-20T10:20:13.284Z,101388.25
2023-01-20T10:25:23.602Z,101390.31
2023-01-20T10:30:31.638Z,101385.94
2023-01-20T10:35:38.966Z,101388.78
2023-01-20T10:40:50.163Z,101386.31
2023-01-20T10:46:18.024Z,101385.28
2023-01-20T10:51:29.210Z,101391.91
2023-01-20T10:56:39.283Z,101380.00
2023-01-20T11:01:43.665Z,101391.69
2023-01-20T11:06:49.807Z,101403.16
2023-01-20T11:11:54.700Z,101397.13
2023-01-20T11:17:04.553Z,101401.09
2023-01-20T11:22:13.647Z,101407.59
2023-01-20T11:27:21.667Z,101400.47
2023-01-20T11:32:30.410Z,101410.94
2023-01-20T11:37:38.125Z,101415.84
2023-01-20T11:42:46.894Z,101400.47
2023-01-20T11:48:06.233Z,101393.63
2023-01-20T11:53:15.169Z,101402.38
2023-01-20T11:58:22.011Z,101408.22
2023-01-20T12:03:45.544Z,101409.78
2023-01-20T12:08:52.129Z,101414.69
2023-01-20T12:14:25.002Z,101413.78
2023-01-20T12:19:35.694Z,101410.00
2023-01-20T12:25:05.421Z,101409.47
2023-01-20T12:30:25.298Z,101419.59
2023-01-20T12:35:35.571Z,101430.81
2023-01-20T12:40:45.696Z,101427.09
2023-01-20T12:46:01.135Z,101438.31
2023-01-20T12:51:20.233Z,101438.72
2023-01-20T12:56:37.227Z,101426.81
2023-01-20T13:01:50.341Z,101426.81
2023-01-20T13:07:11.692Z,101410.81
2023-01-20T13:12:32.903Z,101402.78
2023-01-20T13:17:45.012Z,101394.50
2023-01-20T13:22:50.311Z,101391.78
2023-01-20T13:27:54.624Z,101391.66
2023-01-20T13:33:07.776Z,101396.97
2023-01-20T13:38:20.495Z,101404.56
2023-01-20T13:43:50.496Z,101428.00
2023-01-20T13:49:29.153Z,101439.25
2023-01-20T13:54:43.513Z,101445.47
2023-01-20T13:59:46.508Z,101459.19
2023-01-20T14:04:51.993Z,101462.53
2023-01-20T14:09:56.963Z,101458.44
2023-01-20T14:15:00.222Z,101473.31
2023-01-20T14:20:24.228Z,101479.91
2023-01-20T14:25:28.165Z,101482.63
2023-01-20T14:30:31.816Z,101506.94
2023-01-20T14:35:36.582Z,101519.50
2023-01-20T14:40:40.370Z,101539.66
2023-01-20T14:45:46.480Z,101541.50
2023-01-20T14:50:52.580Z,101542.53
2023-01-20T14:56:02.524Z,101544.56
2023-01-20T15:01:07.813Z,101560.38
2023-01-20T15:06:22.563Z,101577.44
2023-01-20T15:11:29.071Z,101586.38
2023-01-20T15:16:41.758Z,101594.28
2023-01-20T15:21:47.903Z,101600.84
2023-01-20T15:26:53.186Z,101618.69
2023-01-20T15:31:58.194Z,101632.44
2023-01-20T15:37:02.651Z,101635.50
2023-01-20T15:42:07.747Z,101648.72
2023-01-20T15:47:21.061Z,101655.00
2023-01-20T15:52:25.770Z,101665.22
2023-01-20T15:57:29.281Z,101673.75
2023-01-20T16:02:32.432Z,101695.34
2023-01-20T16:07:37.249Z,101717.88
2023-01-20T16:12:40.270Z,101725.13
2023-01-20T16:17:43.583Z,101740.66
2023-01-20T16:22:48.096Z,101752.31
2023-01-20T16:27:53.068Z,101770.44
2023-01-20T16:32:56.245Z,101776.41
2023-01-20T16:38:04.325Z,101797.09
2023-01-20T16:43:07.722Z,101808.50
2023-01-20T16:48:14.097Z,101814.94
2023-01-20T16:53:19.588Z,101831.66
2023-01-20T16:58:22.694Z,101840.31
2023-01-20T17:03:26.960Z,101847.19
2023-01-20T17:08:31.376Z,101868.28
2023-01-20T17:13:34.520Z,101884.72
2023-01-20T17:18:38.268Z,101888.56
2023-01-20T17:23:43.017Z,101892.06
2023-01-20T17:28:46.266Z,101915.50
2023-01-20T17:33:52.930Z,101932.97
2023-01-20T17:38:59.101Z,101943.34
2023-01-20T17:44:02.189Z,101950.88
2023-01-20T17:49:07.002Z,101969.78
2023-01-20T17:54:11.747Z,101980.16
2023-01-20T17:59:15.244Z,101998.09
2023-01-20T18:04:20.533Z,102004.81
2023-01-20T18:09:24.987Z,102013.66
2023-01-20T18:14:28.157Z,102034.25
2023-01-20T18:19:31.172Z,102039.88
2023-01-20T18:24:35.803Z,102047.50
2023-01-20T18:29:38.872Z,102060.25
2023-01-20T18:34:44.638Z,102070.44
2023-01-20T18:39:49.167Z,102075.66
2023-01-20T18:44:52.412Z,102093.03
2023-01-20T18:49:55.783Z,102097.41
2023-01-20T18:55:00.238Z,102119.22
2023-01-20T19:00:03.793Z,102135.34
2023-01-20T19:05:07.885Z,102141.88
2023-01-20T19:10:12.821Z,102156.94
2023-01-20T19:15:16.292Z,102164.88
2023-01-20T19:20:19.649Z,102172.34
2023-01-20T19:25:29.550Z,102196.38
2023-01-20T19:30:33.369Z,102187.69
2023-01-20T19:35:36.391Z,102207.16
2023-01-20T19:40:41.048Z,102211.88
2023-01-20T19:45:46.099Z,102218.84
2023-01-20T19:50:49.854Z,102225.22
2023-01-20T19:55:54.355Z,102242.84
2023-01-20T20:01:06.497Z,102252.41
2023-01-20T20:06:25.232Z,102265.63
2023-01-20T20:11:30.937Z,102275.38
2023-01-20T20:16:36.078Z,102276.81
2023-01-20T20:21:39.197Z,102282.25
2023-01-20T20:26:45.700Z,102299.13
2023-01-20T20:31:51.869Z,102309.63
2023-01-20T20:36:54.973Z,102326.19
2023-01-20T20:41:59.944Z,102339.97
2023-01-20T20:47:03.847Z,102350.75
2023-01-20T20:52:06.966Z,102369.25
2023-01-20T20:57:11.536Z,102380.03
2023-01-20T21:02:15.085Z,102389.84
2023-01-20T21:07:19.483Z,102405.19
2023-01-20T21:12:23.910Z,102411.88
2023-01-20T21:17:27.096Z,102427.34
2023-01-20T21:22:30.172Z,102435.50
2023-01-20T21:27:34.691Z,102440.00
2023-01-20T21:32:41.060Z,102450.34
2023-01-20T21:37:44.521Z,102447.41
2023-01-20T21:42:49.906Z,102447.84
2023-01-20T21:47:53.028Z,102456.00
2023-01-20T21:52:56.126Z,102459.41
2023-01-20T21:58:00.779Z,102473.97
2023-01-20T22:03:03.959Z,102493.56
2023-01-20T22:08:07.370Z,102494.28
2023-01-20T22:13:12.050Z,102498.38
2023-01-20T22:18:15.026Z,102515.38
2023-01-20T22:23:18.001Z,102531.53
2023-01-20T22:28:24.483Z,102543.50
2023-01-20T22:33:27.873Z,102554.56
2023-01-20T22:38:34.197Z,102554.22
2023-01-20T22:43:41.187Z,102580.38
2023-01-20T22:48:44.569Z,102579.69
2023-01-20T22:53:49.876Z,102597.50
2023-01-20T22:58:54.406Z,102599.47
2023-01-20T23:03:59.132Z,102603.34
2023-01-20T23:09:03.965Z,102610.56
2023-01-20T23:14:10.735Z,102610.97
2023-01-20T23:19:14.183Z,102619.03
2023-01-20T23:24:17.259Z,102630.78
2023-01-20T23:29:21.689Z,102634.28
2023-01-20T23:34:24.913Z,102629.72
2023-01-20T23:39:28.154Z,102658.03
2023-01-20T23:44:32.774Z,102660.94
2023-01-20T23:49:35.741Z,102666.13
2023-01-20T23:54:38.789Z,102661.38
2023-01-20T23:59:44.686Z,102678.50
